createdAt,value
2019-04-29T00:00:50.794Z,4.70
2019-04-29T00:04:50.629Z,3.97
2019-04-29T00:08:55.405Z,4.40
2019-04-29T00:12:54.716Z,4.03
2019-04-29T00:16:55.037Z,4.17
2019-04-29T00:20:59.140Z,3.73
2019-04-29T00:24:57.686Z,3.00
2019-04-29T00:28:57.910Z,3.77
2019-04-29T00:32:56.525Z,3.70
2019-04-29T00:37:17.895Z,3.90
2019-04-29T00:41:20.003Z,4.03
2019-04-29T00:45:22.060Z,3.90
2019-04-29T00:49:21.349Z,4.50
2019-04-29T00:53:20.041Z,4.13
2019-04-29T00:57:21.232Z,4.40
2019-04-29T01:01:21.435Z,4.23
2019-04-29T01:05:25.120Z,4.40
2019-04-29T01:09:23.753Z,4.90
2019-04-29T01:13:23.614Z,4.77
2019-04-29T01:17:25.885Z,4.97
2019-04-29T01:21:25.687Z,4.80
2019-04-29T01:25:27.402Z,5.67
2019-04-29T01:29:33.032Z,5.80
2019-04-29T01:33:32.355Z,6.00
2019-04-29T01:37:40.047Z,7.53
2019-04-29T01:41:52.153Z,7.40
2019-04-29T01:45:50.715Z,7.77
2019-04-29T01:49:54.501Z,8.00
2019-04-29T01:53:53.246Z,6.77
2019-04-29T01:57:54.654Z,8.60
2019-04-29T02:01:58.567Z,9.00
2019-04-29T02:05:59.110Z,8.73
2019-04-29T02:10:13.101Z,8.30
2019-04-29T02:14:13.636Z,9.40
2019-04-29T02:18:12.702Z,9.67
2019-04-29T02:22:16.009Z,9.80
2019-04-29T02:26:15.854Z,10.33
2019-04-29T02:30:36.054Z,9.93
2019-04-29T02:34:36.794Z,9.73
2019-04-29T02:38:38.757Z,11.10
2019-04-29T02:42:45.347Z,10.33
2019-04-29T02:46:45.425Z,9.93
2019-04-29T02:50:48.434Z,10.70
2019-04-29T02:54:48.252Z,10.33
2019-04-29T02:58:56.377Z,10.77
2019-04-29T03:03:12.907Z,12.47
2019-04-29T03:07:14.696Z,9.73
2019-04-29T03:11:17.533Z,10.80
2019-04-29T03:15:31.181Z,10.37
2019-04-29T03:19:32.991Z,10.70
2019-04-29T03:23:52.495Z,8.77
2019-04-29T03:27:54.474Z,8.67
2019-04-29T03:31:56.304Z,9.30
2019-04-29T03:35:55.214Z,9.47
2019-04-29T03:39:53.937Z,8.93
2019-04-29T03:43:57.262Z,10.17
2019-04-29T03:47:56.423Z,8.23
2019-04-29T03:51:56.803Z,9.67
2019-04-29T03:55:58.202Z,11.03
2019-04-29T03:59:57.256Z,10.57
2019-04-29T04:04:16.401Z,10.90
2019-04-29T04:08:24.875Z,11.20
2019-04-29T04:12:22.694Z,10.53
2019-04-29T04:16:28.075Z,11.17
2019-04-29T04:20:36.139Z,11.80
2019-04-29T04:24:32.675Z,11.20
2019-04-29T04:28:30.939Z,10.20
2019-04-29T04:32:32.206Z,11.77
2019-04-29T04:36:33.309Z,12.73
2019-04-29T04:40:35.258Z,13.47
2019-04-29T04:44:55.039Z,14.07
2019-04-29T04:48:53.597Z,13.63
2019-04-29T04:52:52.159Z,13.20
2019-04-29T04:56:53.714Z,13.73
2019-04-29T05:00:52.911Z,13.40
2019-04-29T05:04:53.527Z,13.30
2019-04-29T05:08:55.706Z,12.40
2019-04-29T05:13:00.864Z,83.53
2019-04-29T05:16:59.452Z,16.50
2019-04-29T05:20:58.034Z,11.97
2019-04-29T05:24:56.982Z,11.63
2019-04-29T05:28:55.510Z,12.17
2019-04-29T05:32:54.073Z,13.33
2019-04-29T05:37:03.316Z,12.97
2019-04-29T05:41:07.631Z,12.23
2019-04-29T05:45:26.858Z,12.20
2019-04-29T05:49:33.493Z,12.20
2019-04-29T05:53:38.504Z,12.40
2019-04-29T05:57:40.172Z,12.47
2019-04-29T06:01:38.633Z,13.17
2019-04-29T06:05:37.821Z,13.97
2019-04-29T06:09:37.458Z,12.67
2019-04-29T06:13:36.350Z,13.80
2019-04-29T06:17:39.942Z,13.77
2019-04-29T06:21:39.891Z,14.67
2019-04-29T06:25:45.934Z,14.53
2019-04-29T06:29:46.491Z,14.23
2019-04-29T06:33:47.363Z,14.17
2019-04-29T06:37:46.096Z,13.50
2019-04-29T06:41:53.274Z,14.60
2019-04-29T06:45:59.714Z,14.57
2019-04-29T06:50:13.222Z,16.20
2019-04-29T06:54:06.025Z,17.57
2019-04-29T06:58:10.533Z,16.73
2019-04-29T07:02:09.484Z,16.70
2019-04-29T07:06:15.830Z,16.87
2019-04-29T07:10:21.695Z,15.67
2019-04-29T07:14:17.500Z,17.53
2019-04-29T07:18:18.410Z,17.73
2019-04-29T07:22:20.792Z,18.63
2019-04-29T07:26:22.890Z,21.63
2019-04-29T07:30:29.032Z,23.83
2019-04-29T07:34:39.572Z,23.30
2019-04-29T07:38:42.053Z,23.17
2019-04-29T07:42:50.189Z,21.93
2019-04-29T07:46:56.822Z,19.67
2019-04-29T07:50:53.058Z,21.00
2019-04-29T07:54:57.843Z,16.77
2019-04-29T07:58:58.865Z,17.47
2019-04-29T08:02:58.178Z,14.63
2019-04-29T08:06:59.006Z,15.57
2019-04-29T08:10:58.385Z,15.40
2019-04-29T08:15:09.419Z,14.80
2019-04-29T08:19:14.366Z,12.03
2019-04-29T08:23:33.053Z,14.53
2019-04-29T08:27:39.824Z,14.53
2019-04-29T08:31:33.271Z,11.97
2019-04-29T08:35:36.776Z,15.13
2019-04-29T08:39:35.723Z,12.83
2019-04-29T08:43:41.341Z,11.90
2019-04-29T08:47:45.026Z,13.77
2019-04-29T08:51:44.222Z,9.93
2019-04-29T08:55:42.957Z,11.83
2019-04-29T08:59:43.194Z,11.57
2019-04-29T09:03:53.708Z,11.10
2019-04-29T09:07:57.296Z,12.03
2019-04-29T09:12:00.207Z,12.00
2019-04-29T09:15:58.797Z,11.47
2019-04-29T09:19:58.929Z,11.30
2019-04-29T09:23:57.850Z,13.43
2019-04-29T09:28:27.132Z,15.17
2019-04-29T09:32:19.197Z,14.43
2019-04-29T09:36:17.747Z,13.90
2019-04-29T09:40:31.763Z,14.77
2019-04-29T09:44:48.095Z,14.73
2019-04-29T09:48:57.648Z,10.20
2019-04-29T09:52:57.806Z,12.67
2019-04-29T09:56:59.871Z,12.90
2019-04-29T10:01:13.771Z,14.70
2019-04-29T10:05:24.176Z,12.30
2019-04-29T10:09:26.066Z,11.77
2019-04-29T10:13:24.331Z,12.40
2019-04-29T10:17:30.593Z,12.10
2019-04-29T10:21:35.322Z,10.40
2019-04-29T10:25:32.854Z,10.80
2019-04-29T10:29:32.888Z,9.87
2019-04-29T10:33:31.909Z,8.10
2019-04-29T10:37:32.545Z,8.70
2019-04-29T10:41:40.182Z,11.53
2019-04-29T10:45:49.039Z,13.00
2019-04-29T10:49:52.634Z,14.43
2019-04-29T10:53:53.100Z,12.13
2019-04-29T10:57:56.366Z,11.43
2019-04-29T11:02:17.246Z,10.73
2019-04-29T11:06:16.501Z,10.70
2019-04-29T11:10:25.270Z,9.63
2019-04-29T11:14:24.872Z,9.83
2019-04-29T11:18:30.909Z,8.17
2019-04-29T11:22:33.980Z,7.73
2019-04-29T11:26:32.053Z,8.63
2019-04-29T11:30:34.762Z,7.67
2019-04-29T11:34:55.075Z,7.43
2019-04-29T11:38:56.815Z,6.73
2019-04-29T11:43:01.921Z,6.90
2019-04-29T11:47:00.705Z,6.33
2019-04-29T11:51:05.165Z,6.87
2019-04-29T11:55:08.270Z,5.87
2019-04-29T11:59:13.231Z,7.60
2019-04-29T12:03:18.395Z,6.83
2019-04-29T12:07:14.857Z,6.90
2019-04-29T12:11:20.231Z,7.00
2019-04-29T12:15:20.762Z,6.83
2019-04-29T12:19:27.216Z,6.17
2019-04-29T12:23:25.871Z,6.60
2019-04-29T12:27:24.995Z,6.60
2019-04-29T12:31:35.405Z,6.70
2019-04-29T12:35:51.251Z,7.33
2019-04-29T12:39:45.055Z,6.47
2019-04-29T12:44:00.393Z,7.03
2019-04-29T12:48:00.083Z,7.07
2019-04-29T12:51:59.012Z,6.10
2019-04-29T12:55:59.742Z,6.23
2019-04-29T12:59:59.939Z,5.87
2019-04-29T13:04:18.988Z,6.50
2019-04-29T13:08:36.558Z,6.97
2019-04-29T13:12:39.774Z,6.50
2019-04-29T13:16:43.555Z,5.67
2019-04-29T13:20:45.621Z,6.80
2019-04-29T13:24:44.459Z,7.03
2019-04-29T13:28:59.099Z,5.20
2019-04-29T13:32:44.586Z,5.50
2019-04-29T13:37:06.147Z,5.23
2019-04-29T13:40:50.710Z,7.03
2019-04-29T13:45:05.458Z,5.47
2019-04-29T13:48:55.826Z,5.27
2019-04-29T13:52:58.036Z,5.50
2019-04-29T13:57:01.143Z,5.23
2019-04-29T14:01:00.050Z,4.80
2019-04-29T14:05:02.233Z,4.50
2019-04-29T14:09:06.028Z,4.20
2019-04-29T14:13:15.138Z,3.90
2019-04-29T14:17:25.327Z,3.90
2019-04-29T14:21:12.402Z,3.50
2019-04-29T14:25:13.472Z,3.03
2019-04-29T14:29:15.256Z,3.37
2019-04-29T14:33:13.866Z,3.27
2019-04-29T14:37:21.131Z,3.30
2019-04-29T14:41:19.285Z,3.67
2019-04-29T14:45:22.557Z,3.00
2019-04-29T14:49:22.758Z,3.50
2019-04-29T14:53:24.084Z,3.77
2019-04-29T14:57:22.058Z,3.23
2019-04-29T15:01:28.285Z,3.43
2019-04-29T15:05:32.950Z,3.40
2019-04-29T15:09:30.405Z,3.80
2019-04-29T15:13:31.140Z,3.20
2019-04-29T15:17:44.979Z,3.80
2019-04-29T15:21:45.835Z,3.30
2019-04-29T15:25:50.696Z,3.50
2019-04-29T15:29:51.690Z,3.60
2019-04-29T15:33:50.854Z,3.07
2019-04-29T15:37:53.513Z,3.17
2019-04-29T15:41:54.457Z,2.60
2019-04-29T15:45:56.702Z,3.33
2019-04-29T15:58:13.577Z,3.17
2019-04-29T16:02:12.240Z,3.03
2019-04-29T16:06:33.953Z,2.90
2019-04-29T16:10:31.841Z,3.33
2019-04-29T16:14:35.823Z,3.00
2019-04-29T16:18:34.482Z,2.87
2019-04-29T16:22:38.854Z,3.17
2019-04-29T16:26:34.993Z,3.60
2019-04-29T16:30:35.850Z,3.40
2019-04-29T16:34:45.163Z,3.60
2019-04-29T16:38:49.408Z,3.30
2019-04-29T16:42:45.720Z,4.03
2019-04-29T16:46:44.750Z,3.50
2019-04-29T16:50:46.064Z,4.20
2019-04-29T16:54:48.316Z,3.90
2019-04-29T16:58:49.314Z,3.97
2019-04-29T17:02:47.972Z,4.50
2019-04-29T17:10:53.693Z,3.67
2019-04-29T17:15:17.299Z,5.10
2019-04-29T17:19:00.375Z,4.70
2019-04-29T17:23:08.521Z,4.60
2019-04-29T17:27:22.934Z,4.93
2019-04-29T17:31:25.970Z,5.37
2019-04-29T17:35:14.926Z,3.07
2019-04-29T17:35:17.350Z,2.93
2019-04-29T17:35:17.843Z,4.33
2019-04-29T17:35:30.638Z,4.93
2019-04-29T17:39:34.343Z,5.80
2019-04-29T17:43:42.481Z,5.90
2019-04-29T17:48:01.610Z,5.43
2019-04-29T17:52:06.778Z,5.63
2019-04-29T17:56:07.094Z,6.20
2019-04-29T18:00:15.803Z,5.90
2019-04-29T18:04:29.245Z,6.30
2019-04-29T18:08:39.877Z,6.30
2019-04-29T18:12:47.707Z,6.33
2019-04-29T18:16:53.315Z,6.87
2019-04-29T18:21:14.854Z,7.70
2019-04-29T18:25:31.070Z,8.17
2019-04-29T18:29:30.587Z,7.30
2019-04-29T18:33:30.415Z,7.53
2019-04-29T18:37:38.625Z,8.20
2019-04-29T18:41:44.824Z,8.07
2019-04-29T18:45:56.164Z,8.90
2019-04-29T18:49:51.400Z,9.63
2019-04-29T18:53:50.019Z,8.80
2019-04-29T18:57:50.308Z,9.33
2019-04-29T19:01:54.874Z,9.33
2019-04-29T19:05:55.507Z,9.77
2019-04-29T19:09:55.576Z,10.80
2019-04-29T19:13:54.241Z,9.37
2019-04-29T19:18:01.105Z,11.30
2019-04-29T19:22:05.782Z,11.60
2019-04-29T19:26:02.714Z,11.60
2019-04-29T19:30:02.651Z,13.00
2019-04-29T19:34:09.726Z,13.13
2019-04-29T19:38:12.440Z,13.63
2019-04-29T19:42:08.394Z,13.43
2019-04-29T19:46:07.444Z,13.03
2019-04-29T19:50:10.432Z,13.10
2019-04-29T19:54:10.014Z,12.40
2019-04-29T19:58:14.993Z,12.50
2019-04-29T20:02:17.009Z,11.97
2019-04-29T20:06:24.860Z,11.17
2019-04-29T20:10:23.182Z,10.93
2019-04-29T20:14:31.325Z,10.93
2019-04-29T20:18:35.575Z,11.57
2019-04-29T20:22:51.146Z,13.17
2019-04-29T20:27:05.724Z,13.17
2019-04-29T20:31:16.416Z,12.33
2019-04-29T20:35:08.757Z,8.37
2019-04-29T20:39:14.825Z,9.37
2019-04-29T20:43:08.922Z,8.60
2019-04-29T20:47:20.399Z,8.13
2019-04-29T20:51:14.166Z,9.27
2019-04-29T20:55:16.402Z,8.93
2019-04-29T20:59:15.591Z,9.93
2019-04-29T21:03:27.897Z,11.17
2019-04-29T21:07:23.656Z,12.20
2019-04-29T21:11:26.889Z,11.63
2019-04-29T21:15:29.960Z,12.50
2019-04-29T21:19:28.713Z,11.63
2019-04-29T21:23:31.542Z,13.33
2019-04-29T21:27:27.852Z,12.43
2019-04-29T21:31:26.446Z,13.83
2019-04-29T21:35:42.839Z,13.47
2019-04-29T21:44:07.229Z,13.60
2019-04-29T21:48:08.811Z,14.97
2019-04-29T21:52:08.920Z,15.50
2019-04-29T21:56:13.151Z,15.47
2019-04-29T22:00:13.241Z,15.83
2019-04-29T22:04:12.331Z,15.33
2019-04-29T22:08:16.214Z,14.93
2019-04-29T22:12:20.360Z,15.90
2019-04-29T22:16:17.325Z,14.10
2019-04-29T22:20:19.380Z,17.03
2019-04-29T22:24:26.184Z,16.13
2019-04-29T22:28:26.485Z,16.10
2019-04-29T22:32:27.788Z,16.30
2019-04-29T22:36:26.331Z,16.10
2019-04-29T22:40:25.325Z,16.00
2019-04-29T22:44:26.695Z,16.03
2019-04-29T22:48:27.174Z,15.37
2019-04-29T22:52:29.855Z,16.03
2019-04-29T22:56:30.093Z,14.27
2019-04-29T23:00:32.844Z,16.00
2019-04-29T23:04:42.293Z,16.27
2019-04-29T23:08:49.706Z,16.53
2019-04-29T23:12:53.997Z,18.07
2019-04-29T23:16:50.676Z,16.27
2019-04-29T23:20:55.373Z,17.87
2019-04-29T23:24:55.906Z,17.23
2019-04-29T23:28:59.415Z,18.90
2019-04-29T23:33:01.000Z,17.83
2019-04-29T23:37:02.974Z,19.83
2019-04-29T23:41:05.150Z,17.93
2019-04-29T23:45:06.392Z,19.10
2019-04-29T23:49:06.827Z,18.67
2019-04-29T23:53:05.893Z,19.97
2019-04-29T23:57:16.395Z,19.43
